| Time | Avg. Air Temp | Dew Point | Avg. Rel Humidity | Avg. 2 Min Wind Speed | Max Gust Velocity | MGV Time | MGV Direction | Avg. Spot Wind Velocity |
|---|---|---|---|---|---|---|---|---|
| 2026-05-04 03:15:00 | 3° C | -4° C | 58% | 6 km/h | 30 km/h | 03:11:00 | W | 12 km/h |
| 02:15:00 | 4° C | -4° C | 57% | 4 km/h | 14 km/h | 02:15:00 | N | 6 km/h |
| 01:15:00 | 4° C | -4° C | 56% | 13 km/h | 29 km/h | 01:14:00 | NE | 11 km/h |
| 00:15:00 | 5° C | -4° C | 52% | 6 km/h | 13 km/h | 00:14:00 | NE | 5 km/h |
| 23:15:00 | 5° C | -4° C | 53% | 8 km/h | 18 km/h | 23:15:00 | N | 6 km/h |
| 22:15:00 | 6° C | -2° C | 55% | 7 km/h | 19 km/h | 22:11:00 | NE | 9 km/h |
| 21:15:00 | 6° C | -2° C | 53% | 6 km/h | 16 km/h | 21:12:00 | N | 11 km/h |
| 20:15:00 | 7° C | -3° C | 49% | 21 km/h | 23 km/h | 20:12:00 | NW | 21 km/h |
| 19:15:00 | 7° C | -3° C | 51% | 9 km/h | 20 km/h | 19:14:00 | NW | 10 km/h |
| 18:15:00 | 7° C | -3° C | 49% | 6 km/h | 18 km/h | 18:12:00 | SE | 5 km/h |
| 17:15:00 | 7° C | -3° C | 48% | 13 km/h | 23 km/h | 17:15:00 | NW | 11 km/h |
| 16:15:00 | 7° C | -3° C | 50% | 8 km/h | 22 km/h | 16:11:00 | NW | 6 km/h |
| 15:15:00 | 7° C | -3° C | 50% | 8 km/h | 17 km/h | 15:15:00 | NW | 7 km/h |
| 14:15:00 | 6° C | -3° C | 52% | 19 km/h | 25 km/h | 14:13:00 | NW | 18 km/h |
| 13:15:00 | 5° C | -3° C | 53% | 5 km/h | 18 km/h | 13:12:00 | NW | 9 km/h |
| 12:15:00 | 5° C | -4° C | 51% | 11 km/h | 18 km/h | 12:11:00 | NW | 11 km/h |
| 11:15:00 | 5° C | -5° C | 48% | 12 km/h | 19 km/h | 11:13:00 | NW | 12 km/h |
| 10:15:00 | 4° C | -5° C | 51% | 3 km/h | 13 km/h | 10:12:00 | NE | 5 km/h |
| 09:15:00 | 4° C | -6° C | 51% | 13 km/h | 15 km/h | 09:15:00 | NW | 10 km/h |
| 08:15:00 | 3° C | -6° C | 52% | 10 km/h | 14 km/h | 08:15:00 | N | 7 km/h |
| 07:15:00 | 3° C | -6° C | 50% | 16 km/h | 18 km/h | 07:11:00 | NW | 16 km/h |
| 06:15:00 | 3° C | -6° C | 52% | 18 km/h | 21 km/h | 06:15:00 | W | 18 km/h |
| 05:15:00 | 3° C | -6° C | 50% | 17 km/h | 20 km/h | 05:13:00 | NW | 17 km/h |
| 04:15:00 | 3° C | -6° C | 50% | 21 km/h | 24 km/h | 04:13:00 | NW | 22 km/h |
Subpeak Weather
| Time | Avg. Air Temp | Dew Point | Avg. Rel Humidity | Avg. 2 Min Wind Speed | Max Gust Velocity | MGV Time | MGV Direction | Avg. Spot Wind Velocity |
|---|---|---|---|---|---|---|---|---|
| 2026-05-04 03:15:00 | 3° C | -4° C | 58% | 6 km/h | 30 km/h | 03:11:00 | W | 12 km/h |
| 03:10:00 | 4° C | -4° C | 57% | 5 km/h | 31 km/h | 03:07:00 | NE | 15 km/h |
| 03:05:00 | 4° C | -4° C | 56% | 20 km/h | 29 km/h | 03:05:00 | NE | 18 km/h |
| 03:00:00 | 4° C | -4° C | 56% | 20 km/h | 27 km/h | 03:00:00 | NE | 16 km/h |
| 02:55:00 | 4° C | -4° C | 55% | 8 km/h | 25 km/h | 02:52:00 | SW | 9 km/h |
| 02:50:00 | 4° C | -4° C | 55% | 11 km/h | 26 km/h | 02:47:00 | NE | 11 km/h |
| 02:45:00 | 4° C | -4° C | 56% | 4 km/h | 28 km/h | 02:43:00 | NE | 8 km/h |
| 02:40:00 | 4° C | -4° C | 56% | 10 km/h | 25 km/h | 02:36:00 | W | 14 km/h |
| 02:35:00 | 4° C | -4° C | 56% | 21 km/h | 26 km/h | 02:35:00 | NE | 15 km/h |
| 02:30:00 | 4° C | -4° C | 57% | 10 km/h | 20 km/h | 02:30:00 | NE | 8 km/h |
| 02:25:00 | 4° C | -4° C | 57% | 6 km/h | 13 km/h | 02:24:00 | N | 5 km/h |
| 02:20:00 | 4° C | -4° C | 58% | 17 km/h | 21 km/h | 02:19:00 | NE | 12 km/h |
| 02:15:00 | 4° C | -4° C | 57% | 4 km/h | 14 km/h | 02:15:00 | N | 6 km/h |




